Pittsburg, Kentucky
Current Conditions -  °F | °C
As of 12:53 PM on Monday 24 Nov 2014 (Local Time) from KLOZ Reporting Station
Light Rain Light Rain  
Wind Chill: 67°   Ceiling: 6500
Heat Index: 67°   Visibility: 10mi
Dew Point: 40°   Wind: 26mph
Humidity: 37%   Direction: 240°WSW
Pressure: 29.65"   Gusts: 37mph
Location:  37.16°N, 84.1°W
Report Text: KLOZ 241753Z AUTO 24023G32KT 10SM -RA BKN065 19/04 A2965 RMK AO2 PK WND 24035/1742 RAB28 SLP033 P0000 60000 T01940044 10211 20172 53020
Loading
Personal Weather Stations






























Interactive Weather Map New forecast layout! Learn more

10-Day Weather Forecast

Advertisements
Track Severe Weather on mobile